sensor_id;sensor_type;location;lat;lon;timestamp;temperature;humidity
17994;DHT22;9122;48.406;9.984;2024-02-23T00:01:14;9.70;99.90
17994;DHT22;9122;48.406;9.984;2024-02-23T00:03:59;9.60;99.90
17994;DHT22;9122;48.406;9.984;2024-02-23T00:06:43;9.60;99.90
17994;DHT22;9122;48.406;9.984;2024-02-23T00:09:27;9.60;99.90
17994;DHT22;9122;48.406;9.984;2024-02-23T00:12:11;9.60;99.90
17994;DHT22;9122;48.406;9.984;2024-02-23T00:14:58;9.50;99.90
17994;DHT22;9122;48.406;9.984;2024-02-23T00:17:42;9.50;99.90
17994;DHT22;9122;48.406;9.984;2024-02-23T00:20:27;9.50;99.90
17994;DHT22;9122;48.406;9.984;2024-02-23T00:23:11;9.40;99.90
17994;DHT22;9122;48.406;9.984;2024-02-23T00:25:55;9.40;99.90
17994;DHT22;9122;48.406;9.984;2024-02-23T00:28:39;9.40;99.90
17994;DHT22;9122;48.406;9.984;2024-02-23T00:31:23;9.40;99.90
17994;DHT22;9122;48.406;9.984;2024-02-23T00:34:07;9.40;99.90
17994;DHT22;9122;48.406;9.984;2024-02-23T00:36:54;9.40;99.90
17994;DHT22;9122;48.406;9.984;2024-02-23T00:39:39;9.30;99.90
17994;DHT22;9122;48.406;9.984;2024-02-23T00:42:24;9.40;99.90
17994;DHT22;9122;48.406;9.984;2024-02-23T00:45:08;9.20;99.90
17994;DHT22;9122;48.406;9.984;2024-02-23T00:47:53;9.20;99.90
17994;DHT22;9122;48.406;9.984;2024-02-23T00:50:37;9.20;99.90
17994;DHT22;9122;48.406;9.984;2024-02-23T00:53:21;9.80;99.90
17994;DHT22;9122;48.406;9.984;2024-02-23T00:56:06;9.10;99.90
17994;DHT22;9122;48.406;9.984;2024-02-23T00:58:51;9.10;99.70
17994;DHT22;9122;48.406;9.984;2024-02-23T01:01:35;9.20;99.50
17994;DHT22;9122;48.406;9.984;2024-02-23T01:04:19;9.00;99.90
17994;DHT22;9122;48.406;9.984;2024-02-23T01:12:33;8.70;98.10
17994;DHT22;9122;48.406;9.984;2024-02-23T01:15:17;8.70;98.30
17994;DHT22;9122;48.406;9.984;2024-02-23T01:18:01;8.60;98.30
17994;DHT22;9122;48.406;9.984;2024-02-23T01:20:45;8.50;98.30
17994;DHT22;9122;48.406;9.984;2024-02-23T01:23:30;9.20;98.40
17994;DHT22;9122;48.406;9.984;2024-02-23T01:26:14;8.40;98.20
17994;DHT22;9122;48.406;9.984;2024-02-23T01:28:58;8.40;98.30
17994;DHT22;9122;48.406;9.984;2024-02-23T01:31:42;8.50;98.40
17994;DHT22;9122;48.406;9.984;2024-02-23T01:34:27;8.30;98.30
17994;DHT22;9122;48.406;9.984;2024-02-23T01:37:11;8.20;98.10
17994;DHT22;9122;48.406;9.984;2024-02-23T01:39:55;8.40;98.20
17994;DHT22;9122;48.406;9.984;2024-02-23T01:42:40;8.10;98.20
17994;DHT22;9122;48.406;9.984;2024-02-23T01:45:25;7.70;97.90
17994;DHT22;9122;48.406;9.984;2024-02-23T01:48:09;8.40;98.20
17994;DHT22;9122;48.406;9.984;2024-02-23T01:50:54;8.00;98.30
17994;DHT22;9122;48.406;9.984;2024-02-23T01:53:38;8.40;98.50
17994;DHT22;9122;48.406;9.984;2024-02-23T01:56:23;8.00;98.40
17994;DHT22;9122;48.406;9.984;2024-02-23T01:59:08;7.90;98.30
17994;DHT22;9122;48.406;9.984;2024-02-23T02:01:54;7.80;98.20
17994;DHT22;9122;48.406;9.984;2024-02-23T02:04:39;7.80;98.30
17994;DHT22;9122;48.406;9.984;2024-02-23T02:07:23;7.80;98.30
17994;DHT22;9122;48.406;9.984;2024-02-23T02:10:09;7.80;98.30
17994;DHT22;9122;48.406;9.984;2024-02-23T02:12:54;7.70;98.20
17994;DHT22;9122;48.406;9.984;2024-02-23T02:15:38;8.50;98.40
17994;DHT22;9122;48.406;9.984;2024-02-23T02:18:23;8.60;98.50
17994;DHT22;9122;48.406;9.984;2024-02-23T02:21:07;7.60;98.30
17994;DHT22;9122;48.406;9.984;2024-02-23T02:23:51;7.60;98.20
17994;DHT22;9122;48.406;9.984;2024-02-23T02:26:37;7.60;97.90
17994;DHT22;9122;48.406;9.984;2024-02-23T02:29:21;7.70;98.20
17994;DHT22;9122;48.406;9.984;2024-02-23T02:32:06;7.50;98.30
17994;DHT22;9122;48.406;9.984;2024-02-23T02:34:51;7.60;98.30
17994;DHT22;9122;48.406;9.984;2024-02-23T02:37:36;7.60;98.20
17994;DHT22;9122;48.406;9.984;2024-02-23T02:40:21;7.60;98.20
17994;DHT22;9122;48.406;9.984;2024-02-23T02:43:06;7.50;99.90
17994;DHT22;9122;48.406;9.984;2024-02-23T02:45:50;7.50;98.40
17994;DHT22;9122;48.406;9.984;2024-02-23T02:48:34;7.50;98.40
17994;DHT22;9122;48.406;9.984;2024-02-23T02:51:19;7.60;98.40
17994;DHT22;9122;48.406;9.984;2024-02-23T02:54:03;7.60;98.40
17994;DHT22;9122;48.406;9.984;2024-02-23T02:56:48;7.60;98.40
17994;DHT22;9122;48.406;9.984;2024-02-23T02:59:34;7.70;98.50
17994;DHT22;9122;48.406;9.984;2024-02-23T03:02:19;7.50;98.60
17994;DHT22;9122;48.406;9.984;2024-02-23T03:05:04;8.10;98.70
17994;DHT22;9122;48.406;9.984;2024-02-23T03:07:49;7.60;98.60
17994;DHT22;9122;48.406;9.984;2024-02-23T03:10:33;7.50;98.50
17994;DHT22;9122;48.406;9.984;2024-02-23T03:13:19;7.50;99.90
17994;DHT22;9122;48.406;9.984;2024-02-23T03:16:03;7.50;98.40
17994;DHT22;9122;48.406;9.984;2024-02-23T03:18:47;7.50;98.80
17994;DHT22;9122;48.406;9.984;2024-02-23T03:21:32;7.60;99.90
17994;DHT22;9122;48.406;9.984;2024-02-23T03:24:16;7.50;98.50
17994;DHT22;9122;48.406;9.984;2024-02-23T03:27:00;7.10;98.30
17994;DHT22;9122;48.406;9.984;2024-02-23T03:29:45;7.60;98.50
17994;DHT22;9122;48.406;9.984;2024-02-23T03:32:29;7.40;98.60
17994;DHT22;9122;48.406;9.984;2024-02-23T03:35:20;7.40;98.80
17994;DHT22;9122;48.406;9.984;2024-02-23T03:38:04;7.40;99.90
17994;DHT22;9122;48.406;9.984;2024-02-23T03:40:48;7.90;99.10
17994;DHT22;9122;48.406;9.984;2024-02-23T03:43:32;7.30;99.10
17994;DHT22;9122;48.406;9.984;2024-02-23T03:46:18;6.90;99.00
17994;DHT22;9122;48.406;9.984;2024-02-23T03:49:03;7.10;99.00
17994;DHT22;9122;48.406;9.984;2024-02-23T03:51:48;7.30;99.00
17994;DHT22;9122;48.406;9.984;2024-02-23T03:54:32;7.40;98.90
17994;DHT22;9122;48.406;9.984;2024-02-23T03:57:16;7.40;98.80
17994;DHT22;9122;48.406;9.984;2024-02-23T04:00:01;7.30;98.80
17994;DHT22;9122;48.406;9.984;2024-02-23T04:02:46;7.20;98.80
17994;DHT22;9122;48.406;9.984;2024-02-23T04:05:30;6.80;98.60
17994;DHT22;9122;48.406;9.984;2024-02-23T04:08:15;7.20;98.60
17994;DHT22;9122;48.406;9.984;2024-02-23T04:10:59;7.20;98.60
17994;DHT22;9122;48.406;9.984;2024-02-23T04:13:43;7.00;98.50
17994;DHT22;9122;48.406;9.984;2024-02-23T04:19:12;7.20;98.20
17994;DHT22;9122;48.406;9.984;2024-02-23T04:21:57;6.70;98.40
17994;DHT22;9122;48.406;9.984;2024-02-23T04:24:41;7.20;98.40
17994;DHT22;9122;48.406;9.984;2024-02-23T04:27:25;7.10;98.50
17994;DHT22;9122;48.406;9.984;2024-02-23T04:30:10;7.70;98.70
17994;DHT22;9122;48.406;9.984;2024-02-23T04:32:58;7.20;98.70
17994;DHT22;9122;48.406;9.984;2024-02-23T04:35:42;7.20;98.70
17994;DHT22;9122;48.406;9.984;2024-02-23T04:38:27;7.20;98.80
17994;DHT22;9122;48.406;9.984;2024-02-23T04:41:11;7.30;99.00
17994;DHT22;9122;48.406;9.984;2024-02-23T04:43:55;7.00;99.00
17994;DHT22;9122;48.406;9.984;2024-02-23T04:46:43;7.20;99.90
17994;DHT22;9122;48.406;9.984;2024-02-23T04:49:28;7.10;99.20
17994;DHT22;9122;48.406;9.984;2024-02-23T04:52:12;7.10;99.90
17994;DHT22;9122;48.406;9.984;2024-02-23T04:54:57;7.10;99.90
17994;DHT22;9122;48.406;9.984;2024-02-23T04:57:41;7.10;99.50
17994;DHT22;9122;48.406;9.984;2024-02-23T05:00:25;7.10;99.90
17994;DHT22;9122;48.406;9.984;2024-02-23T05:03:16;7.30;99.70
17994;DHT22;9122;48.406;9.984;2024-02-23T05:06:02;7.00;99.90
17994;DHT22;9122;48.406;9.984;2024-02-23T05:08:47;7.10;99.60
17994;DHT22;9122;48.406;9.984;2024-02-23T05:11:33;7.00;99.60
17994;DHT22;9122;48.406;9.984;2024-02-23T05:14:17;7.10;99.90
17994;DHT22;9122;48.406;9.984;2024-02-23T05:17:03;7.00;99.30
17994;DHT22;9122;48.406;9.984;2024-02-23T05:19:48;7.00;99.70
17994;DHT22;9122;48.406;9.984;2024-02-23T05:22:33;7.10;99.90
17994;DHT22;9122;48.406;9.984;2024-02-23T05:25:18;7.00;99.90
17994;DHT22;9122;48.406;9.984;2024-02-23T05:28:02;8.00;99.90
17994;DHT22;9122;48.406;9.984;2024-02-23T05:30:47;7.00;99.90
17994;DHT22;9122;48.406;9.984;2024-02-23T05:33:32;6.70;99.90
17994;DHT22;9122;48.406;9.984;2024-02-23T05:36:16;7.00;99.90
17994;DHT22;9122;48.406;9.984;2024-02-23T05:39:02;7.00;99.90
17994;DHT22;9122;48.406;9.984;2024-02-23T05:41:46;7.00;99.90
17994;DHT22;9122;48.406;9.984;2024-02-23T05:44:31;7.00;99.90
17994;DHT22;9122;48.406;9.984;2024-02-23T05:47:16;6.90;99.90
17994;DHT22;9122;48.406;9.984;2024-02-23T05:50:01;6.50;99.80
17994;DHT22;9122;48.406;9.984;2024-02-23T05:55:29;6.90;99.80
17994;DHT22;9122;48.406;9.984;2024-02-23T05:58:14;6.90;99.90
17994;DHT22;9122;48.406;9.984;2024-02-23T06:01:00;6.90;99.90
17994;DHT22;9122;48.406;9.984;2024-02-23T06:03:45;6.80;99.90
17994;DHT22;9122;48.406;9.984;2024-02-23T06:06:30;6.90;99.90
17994;DHT22;9122;48.406;9.984;2024-02-23T06:09:15;6.90;99.90
17994;DHT22;9122;48.406;9.984;2024-02-23T06:12:00;6.80;99.90
17994;DHT22;9122;48.406;9.984;2024-02-23T06:14:44;6.90;99.90
17994;DHT22;9122;48.406;9.984;2024-02-23T06:17:28;6.90;99.90
17994;DHT22;9122;48.406;9.984;2024-02-23T06:20:13;6.80;99.90
17994;DHT22;9122;48.406;9.984;2024-02-23T06:22:57;6.80;99.90
17994;DHT22;9122;48.406;9.984;2024-02-23T06:25:41;6.90;99.90
17994;DHT22;9122;48.406;9.984;2024-02-23T06:28:25;6.80;99.90
17994;DHT22;9122;48.406;9.984;2024-02-23T06:31:10;6.80;99.90
17994;DHT22;9122;48.406;9.984;2024-02-23T06:33:55;7.30;99.90
17994;DHT22;9122;48.406;9.984;2024-02-23T06:36:39;6.80;99.80
17994;DHT22;9122;48.406;9.984;2024-02-23T06:39:24;6.80;99.90
17994;DHT22;9122;48.406;9.984;2024-02-23T06:47:38;6.80;99.90
17994;DHT22;9122;48.406;9.984;2024-02-23T06:50:23;6.80;99.90
17994;DHT22;9122;48.406;9.984;2024-02-23T06:55:53;6.80;99.70
17994;DHT22;9122;48.406;9.984;2024-02-23T06:58:37;6.50;99.90
17994;DHT22;9122;48.406;9.984;2024-02-23T07:01:23;6.70;99.90
17994;DHT22;9122;48.406;9.984;2024-02-23T07:04:07;6.70;99.90
17994;DHT22;9122;48.406;9.984;2024-02-23T07:06:51;6.70;99.90
17994;DHT22;9122;48.406;9.984;2024-02-23T07:09:35;6.20;99.90
17994;DHT22;9122;48.406;9.984;2024-02-23T07:15:05;6.70;99.90
17994;DHT22;9122;48.406;9.984;2024-02-23T07:20:35;6.60;99.90
17994;DHT22;9122;48.406;9.984;2024-02-23T07:23:20;6.60;99.90
17994;DHT22;9122;48.406;9.984;2024-02-23T07:26:04;6.20;99.90
17994;DHT22;9122;48.406;9.984;2024-02-23T07:31:33;6.60;99.60
17994;DHT22;9122;48.406;9.984;2024-02-23T07:34:17;6.60;99.90
17994;DHT22;9122;48.406;9.984;2024-02-23T07:37:02;6.20;99.70
17994;DHT22;9122;48.406;9.984;2024-02-23T07:39:47;6.60;99.60
17994;DHT22;9122;48.406;9.984;2024-02-23T07:42:32;6.60;99.30
17994;DHT22;9122;48.406;9.984;2024-02-23T07:45:16;6.70;99.90
17994;DHT22;9122;48.406;9.984;2024-02-23T07:48:01;6.60;99.90
17994;DHT22;9122;48.406;9.984;2024-02-23T07:50:46;6.60;99.60
17994;DHT22;9122;48.406;9.984;2024-02-23T07:53:30;6.60;99.60
17994;DHT22;9122;48.406;9.984;2024-02-23T07:56:15;6.70;99.70
17994;DHT22;9122;48.406;9.984;2024-02-23T07:59:01;6.60;99.60
17994;DHT22;9122;48.406;9.984;2024-02-23T08:01:47;6.70;99.60
17994;DHT22;9122;48.406;9.984;2024-02-23T08:04:31;6.70;99.90
17994;DHT22;9122;48.406;9.984;2024-02-23T08:07:15;7.20;99.90
17994;DHT22;9122;48.406;9.984;2024-02-23T08:10:00;6.60;99.80
17994;DHT22;9122;48.406;9.984;2024-02-23T08:12:45;6.70;99.60
17994;DHT22;9122;48.406;9.984;2024-02-23T08:15:29;6.60;99.60
17994;DHT22;9122;48.406;9.984;2024-02-23T08:18:13;6.60;99.60
17994;DHT22;9122;48.406;9.984;2024-02-23T08:20:58;6.60;99.90
17994;DHT22;9122;48.406;9.984;2024-02-23T08:23:44;6.60;99.70
17994;DHT22;9122;48.406;9.984;2024-02-23T08:26:29;6.60;99.70
17994;DHT22;9122;48.406;9.984;2024-02-23T08:29:13;6.60;99.50
17994;DHT22;9122;48.406;9.984;2024-02-23T08:34:42;6.70;99.90
17994;DHT22;9122;48.406;9.984;2024-02-23T08:37:27;6.60;99.70
17994;DHT22;9122;48.406;9.984;2024-02-23T08:40:12;6.60;99.60
17994;DHT22;9122;48.406;9.984;2024-02-23T08:42:56;6.60;99.60
17994;DHT22;9122;48.406;9.984;2024-02-23T08:45:41;6.60;99.60
17994;DHT22;9122;48.406;9.984;2024-02-23T08:48:26;6.60;99.60
17994;DHT22;9122;48.406;9.984;2024-02-23T08:51:10;6.30;99.50
17994;DHT22;9122;48.406;9.984;2024-02-23T08:53:55;6.60;99.50
17994;DHT22;9122;48.406;9.984;2024-02-23T08:56:41;6.60;99.40
17994;DHT22;9122;48.406;9.984;2024-02-23T08:59:26;6.60;99.40
17994;DHT22;9122;48.406;9.984;2024-02-23T09:02:11;6.90;99.50
17994;DHT22;9122;48.406;9.984;2024-02-23T09:04:57;6.70;99.90
17994;DHT22;9122;48.406;9.984;2024-02-23T09:07:41;6.60;99.30
17994;DHT22;9122;48.406;9.984;2024-02-23T09:10:27;6.70;99.90
17994;DHT22;9122;48.406;9.984;2024-02-23T09:13:11;6.60;99.10
17994;DHT22;9122;48.406;9.984;2024-02-23T09:15:56;6.60;99.00
17994;DHT22;9122;48.406;9.984;2024-02-23T09:18:40;6.60;98.70
17994;DHT22;9122;48.406;9.984;2024-02-23T09:21:25;6.60;98.60
17994;DHT22;9122;48.406;9.984;2024-02-23T09:24:10;6.60;98.70
17994;DHT22;9122;48.406;9.984;2024-02-23T09:26:54;6.70;98.70
17994;DHT22;9122;48.406;9.984;2024-02-23T09:29:40;6.60;98.50
17994;DHT22;9122;48.406;9.984;2024-02-23T09:32:25;6.60;98.50
17994;DHT22;9122;48.406;9.984;2024-02-23T09:35:10;6.70;98.50
17994;DHT22;9122;48.406;9.984;2024-02-23T09:43:29;6.60;98.00
17994;DHT22;9122;48.406;9.984;2024-02-23T09:46:16;6.60;97.90
17994;DHT22;9122;48.406;9.984;2024-02-23T09:49:01;6.60;98.20
17994;DHT22;9122;48.406;9.984;2024-02-23T09:51:47;6.60;98.20
17994;DHT22;9122;48.406;9.984;2024-02-23T09:54:32;6.20;98.00
17994;DHT22;9122;48.406;9.984;2024-02-23T09:57:16;6.40;99.90
17994;DHT22;9122;48.406;9.984;2024-02-23T10:00:02;6.20;97.80
17994;DHT22;9122;48.406;9.984;2024-02-23T10:02:50;6.60;97.80
17994;DHT22;9122;48.406;9.984;2024-02-23T10:05:37;6.60;97.60
17994;DHT22;9122;48.406;9.984;2024-02-23T10:08:22;6.60;97.50
17994;DHT22;9122;48.406;9.984;2024-02-23T10:11:07;6.70;99.90
17994;DHT22;9122;48.406;9.984;2024-02-23T10:13:52;6.70;97.30
17994;DHT22;9122;48.406;9.984;2024-02-23T10:16:37;6.70;99.90
17994;DHT22;9122;48.406;9.984;2024-02-23T10:19:22;6.70;97.10
17994;DHT22;9122;48.406;9.984;2024-02-23T10:22:12;7.00;96.80
17994;DHT22;9122;48.406;9.984;2024-02-23T10:24:56;6.80;96.60
17994;DHT22;9122;48.406;9.984;2024-02-23T10:27:42;8.00;97.10
17994;DHT22;9122;48.406;9.984;2024-02-23T10:30:27;6.70;96.60
17994;DHT22;9122;48.406;9.984;2024-02-23T10:33:14;6.70;99.90
17994;DHT22;9122;48.406;9.984;2024-02-23T10:36:01;6.70;96.20
17994;DHT22;9122;48.406;9.984;2024-02-23T10:38:47;6.70;96.20
17994;DHT22;9122;48.406;9.984;2024-02-23T10:41:34;6.70;96.00
17994;DHT22;9122;48.406;9.984;2024-02-23T10:44:20;6.70;96.00
17994;DHT22;9122;48.406;9.984;2024-02-23T10:47:05;6.70;95.80
17994;DHT22;9122;48.406;9.984;2024-02-23T10:49:51;6.70;95.70
17994;DHT22;9122;48.406;9.984;2024-02-23T10:52:36;6.70;95.80
17994;DHT22;9122;48.406;9.984;2024-02-23T10:55:21;7.50;95.80
17994;DHT22;9122;48.406;9.984;2024-02-23T10:58:07;6.70;95.60
17994;DHT22;9122;48.406;9.984;2024-02-23T11:01:03;6.30;95.60
17994;DHT22;9122;48.406;9.984;2024-02-23T11:03:48;6.70;95.90
17994;DHT22;9122;48.406;9.984;2024-02-23T11:06:35;6.70;95.80
17994;DHT22;9122;48.406;9.984;2024-02-23T11:09:24;7.40;95.80
17994;DHT22;9122;48.406;9.984;2024-02-23T11:12:08;6.40;95.50
17994;DHT22;9122;48.406;9.984;2024-02-23T11:15:01;6.70;99.90
17994;DHT22;9122;48.406;9.984;2024-02-23T11:17:49;6.80;95.40
17994;DHT22;9122;48.406;9.984;2024-02-23T11:20:35;6.60;95.30
17994;DHT22;9122;48.406;9.984;2024-02-23T11:23:21;6.80;95.40
17994;DHT22;9122;48.406;9.984;2024-02-23T11:26:05;6.80;95.50
17994;DHT22;9122;48.406;9.984;2024-02-23T11:28:54;6.80;95.60
17994;DHT22;9122;48.406;9.984;2024-02-23T11:31:44;6.80;99.90
17994;DHT22;9122;48.406;9.984;2024-02-23T11:34:30;6.90;99.90
17994;DHT22;9122;48.406;9.984;2024-02-23T11:37:18;6.80;95.20
17994;DHT22;9122;48.406;9.984;2024-02-23T11:40:03;6.90;95.30
17994;DHT22;9122;48.406;9.984;2024-02-23T11:42:49;6.80;95.10
17994;DHT22;9122;48.406;9.984;2024-02-23T11:45:35;6.80;95.20
17994;DHT22;9122;48.406;9.984;2024-02-23T11:48:19;6.80;95.40
17994;DHT22;9122;48.406;9.984;2024-02-23T11:51:04;6.80;95.30
17994;DHT22;9122;48.406;9.984;2024-02-23T11:53:50;6.50;95.20
17994;DHT22;9122;48.406;9.984;2024-02-23T11:56:35;7.00;95.20
17994;DHT22;9122;48.406;9.984;2024-02-23T11:59:20;6.80;95.20
17994;DHT22;9122;48.406;9.984;2024-02-23T12:02:05;7.00;95.40
17994;DHT22;9122;48.406;9.984;2024-02-23T12:04:51;6.90;95.50
17994;DHT22;9122;48.406;9.984;2024-02-23T12:07:35;6.90;99.90
17994;DHT22;9122;48.406;9.984;2024-02-23T12:10:20;6.70;95.30
17994;DHT22;9122;48.406;9.984;2024-02-23T12:13:05;6.90;95.30
17994;DHT22;9122;48.406;9.984;2024-02-23T12:15:52;7.10;95.10
17994;DHT22;9122;48.406;9.984;2024-02-23T12:18:37;6.90;94.90
17994;DHT22;9122;48.406;9.984;2024-02-23T12:21:23;6.90;95.00
17994;DHT22;9122;48.406;9.984;2024-02-23T12:24:08;6.90;95.20
17994;DHT22;9122;48.406;9.984;2024-02-23T12:26:54;6.90;94.40
17994;DHT22;9122;48.406;9.984;2024-02-23T12:29:39;6.90;94.70
17994;DHT22;9122;48.406;9.984;2024-02-23T12:32:23;6.90;94.60
17994;DHT22;9122;48.406;9.984;2024-02-23T12:35:11;6.90;94.60
17994;DHT22;9122;48.406;9.984;2024-02-23T12:37:55;6.90;94.50
17994;DHT22;9122;48.406;9.984;2024-02-23T12:40:40;7.00;99.90
17994;DHT22;9122;48.406;9.984;2024-02-23T12:43:24;6.90;94.60
17994;DHT22;9122;48.406;9.984;2024-02-23T12:46:09;7.00;94.90
17994;DHT22;9122;48.406;9.984;2024-02-23T12:48:53;7.00;94.70
17994;DHT22;9122;48.406;9.984;2024-02-23T12:51:38;7.00;94.80
17994;DHT22;9122;48.406;9.984;2024-02-23T12:57:07;7.00;94.40
17994;DHT22;9122;48.406;9.984;2024-02-23T12:59:51;6.80;94.50
17994;DHT22;9122;48.406;9.984;2024-02-23T13:02:35;7.00;94.70
17994;DHT22;9122;48.406;9.984;2024-02-23T13:08:05;7.00;94.60
17994;DHT22;9122;48.406;9.984;2024-02-23T13:10:49;7.00;95.00
17994;DHT22;9122;48.406;9.984;2024-02-23T13:13:34;8.20;95.30
17994;DHT22;9122;48.406;9.984;2024-02-23T13:16:18;7.10;95.00
17994;DHT22;9122;48.406;9.984;2024-02-23T13:21:48;7.10;98.20
17994;DHT22;9122;48.406;9.984;2024-02-23T13:24:32;7.10;94.80
17994;DHT22;9122;48.406;9.984;2024-02-23T13:27:16;7.70;95.00
17994;DHT22;9122;48.406;9.984;2024-02-23T13:30:02;7.10;94.80
17994;DHT22;9122;48.406;9.984;2024-02-23T13:35:31;7.20;94.70
17994;DHT22;9122;48.406;9.984;2024-02-23T13:38:15;7.10;99.90
17994;DHT22;9122;48.406;9.984;2024-02-23T13:40:59;7.00;94.90
17994;DHT22;9122;48.406;9.984;2024-02-23T13:43:44;7.10;95.00
17994;DHT22;9122;48.406;9.984;2024-02-23T13:46:28;7.20;95.10
17994;DHT22;9122;48.406;9.984;2024-02-23T13:49:13;7.20;95.30
17994;DHT22;9122;48.406;9.984;2024-02-23T13:51:58;7.20;95.30
17994;DHT22;9122;48.406;9.984;2024-02-23T13:54:43;8.00;95.60
17994;DHT22;9122;48.406;9.984;2024-02-23T13:57:27;7.30;95.50
17994;DHT22;9122;48.406;9.984;2024-02-23T14:00:11;7.30;99.90
17994;DHT22;9122;48.406;9.984;2024-02-23T14:02:56;7.30;95.60
17994;DHT22;9122;48.406;9.984;2024-02-23T14:05:41;7.40;95.50
17994;DHT22;9122;48.406;9.984;2024-02-23T14:08:28;6.80;95.30
17994;DHT22;9122;48.406;9.984;2024-02-23T14:11:12;7.20;95.20
17994;DHT22;9122;48.406;9.984;2024-02-23T14:13:57;7.40;95.30
17994;DHT22;9122;48.406;9.984;2024-02-23T14:16:41;7.40;99.90
17994;DHT22;9122;48.406;9.984;2024-02-23T14:19:26;7.30;95.30
17994;DHT22;9122;48.406;9.984;2024-02-23T14:22:11;8.30;95.50
17994;DHT22;9122;48.406;9.984;2024-02-23T14:24:56;7.30;95.10
17994;DHT22;9122;48.406;9.984;2024-02-23T14:27:40;7.30;99.90
17994;DHT22;9122;48.406;9.984;2024-02-23T14:30:25;7.30;99.90
17994;DHT22;9122;48.406;9.984;2024-02-23T14:33:09;6.90;95.00
17994;DHT22;9122;48.406;9.984;2024-02-23T14:38:39;7.30;95.10
17994;DHT22;9122;48.406;9.984;2024-02-23T14:41:24;7.40;95.60
17994;DHT22;9122;48.406;9.984;2024-02-23T14:44:09;7.40;99.90
17994;DHT22;9122;48.406;9.984;2024-02-23T14:46:53;7.40;95.30
17994;DHT22;9122;48.406;9.984;2024-02-23T14:49:38;7.40;95.40
17994;DHT22;9122;48.406;9.984;2024-02-23T14:52:22;7.40;95.40
17994;DHT22;9122;48.406;9.984;2024-02-23T14:55:06;7.50;95.10
17994;DHT22;9122;48.406;9.984;2024-02-23T14:57:51;7.40;94.80
17994;DHT22;9122;48.406;9.984;2024-02-23T15:00:35;7.40;94.60
17994;DHT22;9122;48.406;9.984;2024-02-23T15:03:20;7.10;94.50
17994;DHT22;9122;48.406;9.984;2024-02-23T15:06:05;8.10;94.60
17994;DHT22;9122;48.406;9.984;2024-02-23T15:11:34;7.40;94.10
17994;DHT22;9122;48.406;9.984;2024-02-23T15:14:19;7.40;94.50
17994;DHT22;9122;48.406;9.984;2024-02-23T15:17:03;7.60;94.40
17994;DHT22;9122;48.406;9.984;2024-02-23T15:19:48;7.40;94.20
17994;DHT22;9122;48.406;9.984;2024-02-23T15:22:32;7.00;93.80
17994;DHT22;9122;48.406;9.984;2024-02-23T15:25:17;7.60;93.80
17994;DHT22;9122;48.406;9.984;2024-02-23T15:28:01;7.40;93.80
17994;DHT22;9122;48.406;9.984;2024-02-23T15:33:30;7.40;93.70
17994;DHT22;9122;48.406;9.984;2024-02-23T15:36:15;7.40;94.10
17994;DHT22;9122;48.406;9.984;2024-02-23T15:39:00;7.40;94.20
17994;DHT22;9122;48.406;9.984;2024-02-23T15:41:47;7.40;94.30
17994;DHT22;9122;48.406;9.984;2024-02-23T15:44:31;7.40;94.40
17994;DHT22;9122;48.406;9.984;2024-02-23T15:47:16;7.40;94.10
17994;DHT22;9122;48.406;9.984;2024-02-23T15:50:00;7.30;94.50
17994;DHT22;9122;48.406;9.984;2024-02-23T15:52:45;8.20;94.60
17994;DHT22;9122;48.406;9.984;2024-02-23T15:58:15;7.20;99.90
17994;DHT22;9122;48.406;9.984;2024-02-23T16:01:01;7.30;94.20
17994;DHT22;9122;48.406;9.984;2024-02-23T16:03:46;7.40;94.20
17994;DHT22;9122;48.406;9.984;2024-02-23T16:06:30;7.10;94.00
17994;DHT22;9122;48.406;9.984;2024-02-23T16:09:18;8.20;93.90
17994;DHT22;9122;48.406;9.984;2024-02-23T16:12:02;7.30;93.20
17994;DHT22;9122;48.406;9.984;2024-02-23T16:17:35;7.30;92.70
17994;DHT22;9122;48.406;9.984;2024-02-23T16:20:20;7.00;93.00
17994;DHT22;9122;48.406;9.984;2024-02-23T16:23:04;8.10;93.20
17994;DHT22;9122;48.406;9.984;2024-02-23T16:25:49;7.30;92.90
17994;DHT22;9122;48.406;9.984;2024-02-23T16:28:33;7.70;92.90
17994;DHT22;9122;48.406;9.984;2024-02-23T16:31:17;7.50;92.90
17994;DHT22;9122;48.406;9.984;2024-02-23T16:36:46;7.30;92.70
17994;DHT22;9122;48.406;9.984;2024-02-23T16:39:30;7.30;99.90
17994;DHT22;9122;48.406;9.984;2024-02-23T16:42:15;7.20;93.20
17994;DHT22;9122;48.406;9.984;2024-02-23T16:45:00;7.20;93.40
17994;DHT22;9122;48.406;9.984;2024-02-23T16:47:44;7.20;93.40
17994;DHT22;9122;48.406;9.984;2024-02-23T16:50:29;7.30;93.50
17994;DHT22;9122;48.406;9.984;2024-02-23T16:53:14;6.80;93.40
17994;DHT22;9122;48.406;9.984;2024-02-23T16:55:58;7.20;93.70
17994;DHT22;9122;48.406;9.984;2024-02-23T16:58:45;7.20;93.80
17994;DHT22;9122;48.406;9.984;2024-02-23T17:01:30;7.20;93.60
17994;DHT22;9122;48.406;9.984;2024-02-23T17:04:15;7.10;94.10
17994;DHT22;9122;48.406;9.984;2024-02-23T17:06:59;7.10;99.90
17994;DHT22;9122;48.406;9.984;2024-02-23T17:09:45;7.20;94.30
17994;DHT22;9122;48.406;9.984;2024-02-23T17:12:30;7.20;94.30
17994;DHT22;9122;48.406;9.984;2024-02-23T17:15:18;7.20;94.60
17994;DHT22;9122;48.406;9.984;2024-02-23T17:18:06;7.10;94.40
17994;DHT22;9122;48.406;9.984;2024-02-23T17:20:53;7.10;94.50
17994;DHT22;9122;48.406;9.984;2024-02-23T17:23:37;7.10;94.40
17994;DHT22;9122;48.406;9.984;2024-02-23T17:26:21;7.10;94.50
17994;DHT22;9122;48.406;9.984;2024-02-23T17:29:05;6.90;94.50
17994;DHT22;9122;48.406;9.984;2024-02-23T17:31:51;7.10;94.50
17994;DHT22;9122;48.406;9.984;2024-02-23T17:34:37;7.10;94.50
17994;DHT22;9122;48.406;9.984;2024-02-23T17:37:21;7.10;94.60
17994;DHT22;9122;48.406;9.984;2024-02-23T17:40:06;7.10;99.90
17994;DHT22;9122;48.406;9.984;2024-02-23T17:42:52;7.10;94.60
17994;DHT22;9122;48.406;9.984;2024-02-23T17:45:36;7.10;94.80
17994;DHT22;9122;48.406;9.984;2024-02-23T17:48:20;7.10;94.70
17994;DHT22;9122;48.406;9.984;2024-02-23T17:53:50;7.00;94.30
17994;DHT22;9122;48.406;9.984;2024-02-23T17:56:35;7.00;94.70
17994;DHT22;9122;48.406;9.984;2024-02-23T18:02:03;6.90;99.90
17994;DHT22;9122;48.406;9.984;2024-02-23T18:04:47;7.00;95.00
17994;DHT22;9122;48.406;9.984;2024-02-23T18:07:32;7.00;95.00
17994;DHT22;9122;48.406;9.984;2024-02-23T18:10:16;7.60;95.10
17994;DHT22;9122;48.406;9.984;2024-02-23T18:13:05;7.60;95.40
17994;DHT22;9122;48.406;9.984;2024-02-23T18:15:50;7.00;99.90
17994;DHT22;9122;48.406;9.984;2024-02-23T18:18:34;6.90;95.10
17994;DHT22;9122;48.406;9.984;2024-02-23T18:21:19;6.60;95.00
17994;DHT22;9122;48.406;9.984;2024-02-23T18:24:05;7.00;99.90
17994;DHT22;9122;48.406;9.984;2024-02-23T18:29:35;6.90;95.00
17994;DHT22;9122;48.406;9.984;2024-02-23T18:32:19;6.90;95.30
17994;DHT22;9122;48.406;9.984;2024-02-23T18:35:04;6.80;95.10
17994;DHT22;9122;48.406;9.984;2024-02-23T18:37:49;6.90;95.40
17994;DHT22;9122;48.406;9.984;2024-02-23T18:40:35;7.00;95.50
17994;DHT22;9122;48.406;9.984;2024-02-23T18:43:22;6.90;99.90
17994;DHT22;9122;48.406;9.984;2024-02-23T18:46:10;6.90;96.00
17994;DHT22;9122;48.406;9.984;2024-02-23T18:48:58;6.80;99.90
17994;DHT22;9122;48.406;9.984;2024-02-23T18:51:44;6.90;99.90
17994;DHT22;9122;48.406;9.984;2024-02-23T18:54:29;6.90;99.90
17994;DHT22;9122;48.406;9.984;2024-02-23T18:57:14;6.90;99.90
17994;DHT22;9122;48.406;9.984;2024-02-23T19:02:43;6.80;95.30
17994;DHT22;9122;48.406;9.984;2024-02-23T19:05:29;6.80;95.60
17994;DHT22;9122;48.406;9.984;2024-02-23T19:08:14;6.80;95.70
17994;DHT22;9122;48.406;9.984;2024-02-23T19:11:02;6.80;95.30